Time;durP1;ratioP1;P1;durP2;ratioP2;P2;SDS_P1;SDS_P2;PMS_P1;PMS_P2;Temp;Humidity;BMP_temperature;BMP_pressure;BME280_temperature;BME280_humidity;BME280_pressure;Samples;Min_cycle;Max_cycle;Signal;HPM_P1;HPM_P2
2022/07/13 00:00:25;;;;;;;3.72;0.80;;;;;;;15.15;81.21;99572.64;1800606;77;21024;-66
2022/07/13 00:02:53;;;;;;;2.40;1.12;;;;;;;15.11;81.46;99569.86;1750109;80;20963;-67
2022/07/13 00:05:20;;;;;;;2.47;1.30;;;;;;;15.09;81.50;99567.80;1804871;78;21064;-67
2022/07/13 00:07:47;;;;;;;5.45;1.85;;;;;;;15.07;81.48;99572.32;1796942;78;20926;-67
2022/07/13 00:10:14;;;;;;;5.60;1.20;;;;;;;15.05;81.74;99571.12;1796018;78;21013;-67
2022/07/13 00:12:40;;;;;;;3.83;1.40;;;;;;;15.05;81.93;99571.61;1794980;78;21667;-67
2022/07/13 00:15:09;;;;;;;5.28;1.27;;;;;;;15.04;81.79;99575.16;1765420;78;22295;-66
2022/07/13 00:17:36;;;;;;;5.53;1.20;;;;;;;15.02;81.98;99574.45;1769674;78;20991;-67
2022/07/13 00:20:04;;;;;;;3.72;1.30;;;;;;;15.04;82.76;99569.90;1793145;78;20997;-67
2022/07/13 00:22:31;;;;;;;2.92;1.22;;;;;;;15.05;82.38;99566.34;1793936;78;20965;-67
2022/07/13 00:24:58;;;;;;;2.92;0.90;;;;;;;15.03;82.40;99570.86;1809929;77;20941;-67
2022/07/13 00:27:24;;;;;;;2.02;1.07;;;;;;;15.04;82.58;99575.16;1774133;80;22224;-67
2022/07/13 00:29:51;;;;;;;2.95;1.32;;;;;;;15.04;82.53;99567.27;1807135;78;21541;-67
2022/07/13 00:32:18;;;;;;;3.60;1.05;;;;;;;15.03;82.38;99565.59;1808321;79;20928;-67
2022/07/13 00:34:45;;;;;;;4.08;1.35;;;;;;;15.03;82.40;99568.23;1807138;78;20983;-67
2022/07/13 00:37:12;;;;;;;3.20;1.10;;;;;;;14.99;82.69;99561.03;1783275;80;20978;-67
2022/07/13 00:39:39;;;;;;;4.08;1.02;;;;;;;15.04;83.55;99565.95;1793493;78;22413;-67
2022/07/13 00:42:05;;;;;;;1.62;0.90;;;;;;;15.10;83.52;99553.73;1792739;78;21572;-67
2022/07/13 00:44:32;;;;;;;2.45;1.00;;;;;;;15.13;83.09;99552.20;1793759;79;21016;-67
2022/07/13 00:46:59;;;;;;;5.73;1.17;;;;;;;15.16;83.22;99555.93;1790599;79;20986;-67
2022/07/13 00:49:26;;;;;;;3.58;1.00;;;;;;;15.18;84.33;99554.05;1793403;78;21507;-67
2022/07/13 00:51:53;;;;;;;4.53;1.40;;;;;;;15.20;83.42;99555.59;1793377;78;21053;-67
2022/07/13 00:54:28;;;;;;;4.35;1.25;;;;;;;15.18;83.35;99551.42;1787858;79;20949;-67
2022/07/13 00:56:50;;;;;;;3.27;1.15;;;;;;;15.19;83.35;99549.14;1779048;80;21001;-67
2022/07/13 00:59:17;;;;;;;6.30;1.45;;;;;;;15.18;83.28;99547.47;1780647;79;21171;-67
2022/07/13 01:01:44;;;;;;;2.67;1.20;;;;;;;15.13;83.30;99543.83;1818965;77;21475;-66
2022/07/13 01:04:10;;;;;;;4.42;1.32;;;;;;;15.09;83.53;99536.25;1790430;78;20994;-67
2022/07/13 01:06:38;;;;;;;7.47;1.35;;;;;;;15.09;83.59;99536.25;1815522;77;21514;-67
2022/07/13 01:09:04;;;;;;;4.17;1.40;;;;;;;15.05;83.67;99535.63;1794928;79;21566;-67
2022/07/13 01:11:32;;;;;;;3.43;1.20;;;;;;;15.06;83.53;99538.61;1818249;78;20982;-67
2022/07/13 01:14:00;;;;;;;4.50;1.20;;;;;;;15.04;83.48;99539.66;1819610;77;20939;-67
2022/07/13 01:16:27;;;;;;;5.10;1.35;;;;;;;15.02;83.54;99537.64;1785593;79;21479;-66
2022/07/13 01:18:54;;;;;;;3.92;1.50;;;;;;;14.97;83.53;99541.41;1793484;78;21495;-67
2022/07/13 01:21:21;;;;;;;2.67;1.27;;;;;;;14.96;83.59;99544.98;1789742;78;20967;-67
2022/07/13 01:23:48;;;;;;;4.40;1.40;;;;;;;14.94;83.73;99547.35;1796390;79;28394;-68
2022/07/13 01:26:15;;;;;;;2.70;0.98;;;;;;;14.92;83.62;99543.50;1821048;78;21051;-67
2022/07/13 01:28:42;;;;;;;6.33;1.32;;;;;;;14.90;83.68;99542.78;1773946;80;21488;-67
2022/07/13 01:31:08;;;;;;;5.03;1.20;;;;;;;14.89;83.83;99541.08;1783247;78;21122;-67
2022/07/13 01:33:35;;;;;;;3.27;1.32;;;;;;;14.86;83.79;99536.03;1776896;78;20973;-66
2022/07/13 01:36:02;;;;;;;3.97;1.67;;;;;;;14.83;83.76;99533.63;1791782;78;21508;-67
2022/07/13 01:38:29;;;;;;;4.08;1.30;;;;;;;14.80;83.84;99536.45;1818992;78;20952;-67
2022/07/13 01:40:56;;;;;;;6.80;2.17;;;;;;;14.77;83.89;99527.47;1792032;79;21195;-68
2022/07/13 01:43:28;;;;;;;2.50;1.27;;;;;;;14.74;83.95;99530.30;1796242;79;21491;-66
2022/07/13 01:45:55;;;;;;;4.22;1.17;;;;;;;14.70;83.98;99527.50;1791972;79;20997;-67
2022/07/13 01:48:21;;;;;;;3.97;1.33;;;;;;;14.67;84.18;99526.39;1819509;77;21002;-67
2022/07/13 01:50:48;;;;;;;4.97;1.03;;;;;;;14.63;84.23;99532.81;1789188;79;21086;-67
2022/07/13 01:53:15;;;;;;;3.92;1.00;;;;;;;14.57;84.39;99524.03;1823823;78;21091;-67
2022/07/13 01:55:42;;;;;;;5.42;1.37;;;;;;;14.55;84.51;99527.59;1823415;78;21004;-67
2022/07/13 01:58:08;;;;;;;2.57;1.10;;;;;;;14.54;84.53;99527.70;1824311;78;21579;-67
2022/07/13 02:00:35;;;;;;;4.03;1.47;;;;;;;14.50;84.66;99527.02;1823700;78;20928;-67
2022/07/13 02:03:03;;;;;;;3.08;1.20;;;;;;;14.49;84.71;99521.41;1821886;77;20990;-67
2022/07/13 02:05:31;;;;;;;7.58;1.80;;;;;;;14.48;84.90;99515.79;1819864;78;21158;-67
2022/07/13 02:07:57;;;;;;;3.50;1.22;;;;;;;14.49;84.88;99513.52;1819033;77;20943;-67
2022/07/13 02:10:37;;;;;;;3.13;1.27;;;;;;;14.50;84.93;99509.11;1819920;78;21595;-67
2022/07/13 02:13:08;;;;;;;4.05;1.30;;;;;;;14.50;84.96;99504.69;1819163;78;21843;-67
2022/07/13 02:15:35;;;;;;;4.37;1.37;;;;;;;14.50;85.03;99505.16;1817703;78;20943;-67
2022/07/13 02:18:02;;;;;;;4.25;1.20;;;;;;;14.49;85.08;99503.02;1822209;77;21089;-67
2022/07/13 02:20:29;;;;;;;3.40;1.27;;;;;;;14.51;85.17;99503.77;1817857;78;20978;-67
2022/07/13 02:22:56;;;;;;;3.20;1.22;;;;;;;14.51;85.26;99498.50;1816102;78;21024;-66
2022/07/13 02:25:22;;;;;;;3.23;1.00;;;;;;;14.54;85.40;99498.33;1820446;78;20935;-67
2022/07/13 02:27:50;;;;;;;6.33;1.25;;;;;;;14.55;85.28;99498.69;1820312;78;21535;-67
2022/07/13 02:30:16;;;;;;;3.10;1.30;;;;;;;14.59;85.30;99504.60;1818847;78;20969;-67
2022/07/13 02:32:45;;;;;;;3.70;1.02;;;;;;;14.63;85.08;99489.46;1821676;78;21658;-67
2022/07/13 02:35:13;;;;;;;5.47;1.10;;;;;;;14.65;85.21;99488.41;1821323;78;20962;-67
2022/07/13 02:37:41;;;;;;;2.85;1.07;;;;;;;14.67;85.56;99483.88;1823379;77;21528;-67
2022/07/13 02:40:11;;;;;;;5.58;1.20;;;;;;;14.70;85.32;99480.20;1823383;78;21512;-67
2022/07/13 02:42:37;;;;;;;3.45;0.98;;;;;;;14.71;85.38;99481.90;1823414;78;21071;-67
2022/07/13 02:45:06;;;;;;;5.03;1.27;;;;;;;14.71;85.50;99472.22;1821479;78;21536;-67
2022/07/13 02:47:33;;;;;;;4.85;1.27;;;;;;;14.73;85.56;99477.36;1822667;78;20954;-67
2022/07/13 02:50:00;;;;;;;3.25;1.20;;;;;;;14.76;85.61;99481.13;1823863;78;21536;-67
2022/07/13 02:52:27;;;;;;;2.83;0.90;;;;;;;14.80;85.65;99474.69;1822705;77;21539;-67
2022/07/13 02:54:53;;;;;;;2.92;1.00;;;;;;;14.84;85.69;99480.57;1821866;78;21452;-67
2022/07/13 02:57:20;;;;;;;3.50;1.30;;;;;;;14.91;85.80;99478.73;1824239;78;20888;-67
2022/07/13 02:59:47;;;;;;;6.83;1.12;;;;;;;15.33;86.80;99478.00;1822948;78;21037;-67
2022/07/13 03:02:14;;;;;;;3.30;1.10;;;;;;;16.27;87.14;99485.25;1824012;78;21053;-68
2022/07/13 03:04:40;;;;;;;4.10;1.12;;;;;;;17.27;86.80;99480.73;1822817;78;21041;-67
2022/07/13 03:07:07;;;;;;;2.90;1.05;;;;;;;18.24;85.61;99481.73;1824172;78;21535;-68
2022/07/13 03:09:33;;;;;;;3.52;0.90;;;;;;;18.95;85.30;99478.78;1823212;78;21014;-68
2022/07/13 03:12:00;;;;;;;5.42;1.00;;;;;;;19.85;84.93;99473.16;1823481;78;21488;-68
2022/07/13 03:14:27;;;;;;;5.53;1.20;;;;;;;20.49;83.41;99479.72;1823402;78;21053;-67
2022/07/13 03:16:53;;;;;;;4.72;1.15;;;;;;;21.11;83.27;99478.31;1817557;78;20947;-68
2022/07/13 03:19:20;;;;;;;3.22;1.40;;;;;;;21.74;81.53;99475.45;1822432;78;22349;-68
2022/07/13 03:21:47;;;;;;;8.50;1.35;;;;;;;22.18;81.07;99480.88;1819973;78;21062;-68
2022/07/13 03:24:13;;;;;;;3.05;1.10;;;;;;;22.48;78.51;99479.12;1820766;77;21921;-68
2022/07/13 03:26:40;;;;;;;4.62;1.50;;;;;;;22.62;78.98;99486.22;1817289;78;21037;-68
2022/07/13 03:29:07;;;;;;;4.35;1.35;;;;;;;22.88;78.71;99484.88;1817786;78;21016;-68
2022/07/13 03:31:33;;;;;;;;;;;;;;;23.35;79.01;99474.66;1824722;78;21136;-69
2022/07/13 03:34:00;;;;;;;2.77;1.00;;;;;;;23.74;76.93;99471.48;1823338;78;20200;-69
2022/07/13 03:36:26;;;;;;;;;;;;;;;23.82;76.03;99470.17;1826677;78;21521;-68
2022/07/13 03:38:53;;;;;;;5.28;1.40;;;;;;;24.30;76.09;99464.54;1822286;78;20087;-68
2022/07/13 03:41:19;;;;;;;;;;;;;;;24.58;76.31;99465.55;1822031;78;20931;-68
2022/07/13 03:43:46;;;;;;;2.92;1.15;;;;;;;24.82;72.01;99468.70;1817883;78;21102;-68
2022/07/13 03:46:13;;;;;;;2.60;1.05;;;;;;;25.01;73.15;99467.45;1823012;78;21589;-68
2022/07/13 03:48:39;;;;;;;;;;;;;;;25.15;72.47;99469.47;1824744;78;21069;-68
2022/07/13 03:51:06;;;;;;;4.87;1.40;;;;;;;25.17;69.68;99468.77;1820627;78;20160;-68
2022/07/13 03:53:33;;;;;;;4.80;1.30;;;;;;;25.40;70.85;99480.03;1815099;77;20927;-68
2022/07/13 03:55:59;;;;;;;3.30;1.17;;;;;;;25.67;70.57;99476.89;1817926;77;21115;-69
2022/07/13 03:58:26;;;;;;;2.65;0.80;;;;;;;25.63;68.46;99487.62;1777584;80;21584;-68
2022/07/13 04:00:52;;;;;;;5.37;1.22;;;;;;;25.53;65.92;99481.66;1781527;78;21041;-68
2022/07/13 04:03:19;;;;;;;7.60;1.50;;;;;;;25.41;65.86;99483.05;1783405;80;21093;-68
2022/07/13 04:05:46;;;;;;;2.85;1.10;;;;;;;25.47;65.74;99485.53;1779088;80;21066;-69
2022/07/13 04:08:12;;;;;;;3.33;1.00;;;;;;;25.52;62.22;99494.70;1836522;77;21427;-69
2022/07/13 04:10:39;;;;;;;2.70;1.20;;;;;;;25.75;64.02;99505.95;1822179;77;21552;-66
2022/07/13 04:13:06;;;;;;;3.40;1.12;;;;;;;25.09;63.87;99492.81;1816036;77;20996;-66
2022/07/13 04:15:32;;;;;;;3.70;1.15;;;;;;;24.00;64.32;99510.53;1833054;77;21072;-66
2022/07/13 04:17:59;;;;;;;;;;;;;;;22.46;63.37;99508.20;1823927;77;21103;-66
2022/07/13 04:20:25;;;;;;;;;;;;;;;21.38;64.31;99511.23;1821940;77;20938;-66
2022/07/13 04:22:51;;;;;;;;;;;;;;;20.69;65.45;99505.25;1799408;78;20078;-66
2022/07/13 04:25:18;;;;;;;4.28;1.05;;;;;;;20.27;66.05;99502.06;1778160;79;20193;-66
2022/07/13 04:27:45;;;;;;;5.40;1.15;;;;;;;20.03;66.52;99499.84;1819825;76;21069;-65
2022/07/13 04:30:11;;;;;;;3.98;1.17;;;;;;;19.82;66.61;99501.26;1763882;79;21146;-66
2022/07/13 04:32:38;;;;;;;3.87;0.98;;;;;;;19.55;67.46;99493.91;1797586;79;21139;-66
2022/07/13 04:35:06;;;;;;;3.27;1.05;;;;;;;19.37;67.38;99500.34;1794153;78;21026;-66
2022/07/13 04:37:35;;;;;;;5.58;1.20;;;;;;;19.31;67.58;99487.16;1796938;78;21075;-65
2022/07/13 04:40:03;;;;;;;5.00;1.10;;;;;;;19.29;67.78;99488.27;1810219;78;20968;-66
2022/07/13 04:42:30;;;;;;;8.25;1.70;;;;;;;19.36;68.13;99494.22;1802198;78;21004;-66
2022/07/13 04:44:57;;;;;;;4.65;1.25;;;;;;;19.32;67.88;99496.77;1797998;78;21948;-66
2022/07/13 04:47:23;;;;;;;2.08;0.85;;;;;;;19.28;68.01;99499.34;1802311;78;20999;-65
2022/07/13 04:49:50;;;;;;;3.22;1.10;;;;;;;19.26;68.20;99505.25;1803039;78;20942;-65
2022/07/13 04:52:17;;;;;;;;;;;;;;;19.29;68.40;99506.30;1776343;79;21480;-66
2022/07/13 04:54:43;;;;;;;2.58;0.90;;;;;;;19.35;68.43;99504.47;1787394;78;20149;-66
2022/07/13 04:57:11;;;;;;;3.87;1.35;;;;;;;19.32;68.53;99511.33;1793407;78;21436;-66
2022/07/13 04:59:38;;;;;;;5.75;1.20;;;;;;;19.37;68.59;99502.50;1773186;79;21018;-66
2022/07/13 05:02:04;;;;;;;5.17;1.15;;;;;;;19.47;68.77;99514.95;1816394;77;21545;-66
2022/07/13 05:04:31;;;;;;;4.20;1.32;;;;;;;19.98;69.69;99516.14;1775554;79;20902;-66
2022/07/13 05:06:57;;;;;;;2.75;1.05;;;;;;;20.68;68.88;99511.55;1765920;80;21581;-66
2022/07/13 05:09:24;;;;;;;5.00;1.20;;;;;;;21.03;68.15;99507.41;1795106;78;25963;-66
2022/07/13 05:11:52;;;;;;;7.62;1.42;;;;;;;21.23;68.30;99510.36;1773658;78;20985;-66
2022/07/13 05:14:19;;;;;;;1.62;0.93;;;;;;;22.26;69.00;99498.23;1776650;80;20950;-66
2022/07/13 05:16:45;;;;;;;3.10;1.22;;;;;;;23.48;66.92;99497.37;1785322;78;20946;-67
2022/07/13 05:19:13;;;;;;;6.95;1.40;;;;;;;24.28;67.21;99497.72;1818399;78;21531;-66
2022/07/13 05:21:39;;;;;;;7.35;1.37;;;;;;;25.21;67.14;99483.98;1820034;78;21989;-67
2022/07/13 05:24:06;;;;;;;;;;;;;;;25.96;65.05;99486.10;1785305;79;20982;-67
2022/07/13 05:26:33;;;;;;;7.62;1.35;;;;;;;26.10;63.06;99488.03;1798886;78;20112;-67
2022/07/13 05:29:02;;;;;;;2.40;0.93;;;;;;;26.58;63.17;99491.00;1802497;78;20942;-66
2022/07/13 05:31:28;;;;;;;2.98;0.93;;;;;;;26.75;63.20;99492.53;1801372;78;20918;-67
2022/07/13 05:33:54;;;;;;;3.52;0.85;;;;;;;26.87;60.34;99494.25;1793249;78;21106;-67
2022/07/13 05:36:21;;;;;;;2.15;0.82;;;;;;;26.54;60.09;99496.72;1797040;78;21506;-67
2022/07/13 05:38:48;;;;;;;4.20;0.72;;;;;;;26.85;61.40;99499.78;1800011;78;21502;-67
2022/07/13 05:41:15;;;;;;;2.70;0.80;;;;;;;27.05;60.69;99499.23;1802135;78;21088;-67
2022/07/13 05:43:41;;;;;;;6.62;1.10;;;;;;;26.89;58.32;99501.09;1798051;78;20945;-67
2022/07/13 05:46:08;;;;;;;3.85;0.88;;;;;;;26.87;56.22;99496.42;1798347;78;21449;-67
2022/07/13 05:48:35;;;;;;;2.62;1.07;;;;;;;26.78;57.26;99497.01;1795816;78;20984;-67
2022/07/13 05:51:02;;;;;;;5.35;1.22;;;;;;;26.83;57.97;99485.77;1791569;78;20931;-67
2022/07/13 05:53:29;;;;;;;3.65;0.80;;;;;;;27.35;56.99;99479.48;1798896;78;21054;-67
2022/07/13 05:55:56;;;;;;;3.30;0.85;;;;;;;27.30;56.18;99480.55;1796260;78;21040;-67
2022/07/13 05:58:23;;;;;;;1.92;0.90;;;;;;;26.96;55.60;99480.58;1815477;77;21391;-67
2022/07/13 06:00:49;;;;;;;5.22;0.80;;;;;;;27.43;56.50;99471.34;1785430;80;21626;-67
2022/07/13 06:03:16;;;;;;;2.33;0.90;;;;;;;27.61;53.91;99478.14;1799044;78;20951;-67
2022/07/13 06:05:43;;;;;;;5.95;1.27;;;;;;;27.73;53.68;99477.98;1790588;78;20927;-68
2022/07/13 06:08:09;;;;;;;5.37;1.00;;;;;;;28.05;54.76;99486.08;1790198;80;21471;-67
2022/07/13 06:10:37;;;;;;;3.37;1.12;;;;;;;28.33;53.45;99474.56;1814104;77;21079;-67
2022/07/13 06:13:03;;;;;;;1.67;0.80;;;;;;;28.21;54.03;99480.15;1823976;78;20971;-67
2022/07/13 06:15:30;;;;;;;1.95;0.75;;;;;;;28.11;52.40;99483.14;1823143;78;20931;-70
2022/07/13 06:17:57;;;;;;;3.72;0.90;;;;;;;27.83;51.52;99482.55;1815769;78;20934;-67
2022/07/13 06:20:24;;;;;;;4.33;0.95;;;;;;;27.33;51.65;99485.53;1779162;78;21059;-69
2022/07/13 06:23:09;;;;;;;4.20;1.17;;;;;;;27.32;52.46;99490.58;1798234;79;21985;-68
2022/07/13 06:25:39;;;;;;;7.45;1.02;;;;;;;27.06;51.32;99494.22;1797949;78;20913;-68
2022/07/13 06:28:07;;;;;;;4.33;0.90;;;;;;;26.82;51.22;99492.11;1797431;78;21555;-70
2022/07/13 06:30:35;;;;;;;7.28;1.07;;;;;;;26.96;52.04;99480.58;1791578;78;21002;-69
2022/07/13 06:33:02;;;;;;;4.50;0.60;;;;;;;27.26;51.97;99495.35;1795445;79;21560;-70
2022/07/13 06:35:30;;;;;;;2.45;1.02;;;;;;;27.60;51.67;99492.06;1762779;78;21197;-70
2022/07/13 06:37:57;;;;;;;10.35;0.95;;;;;;;27.62;51.77;99490.55;1813100;78;21504;-70
2022/07/13 06:40:25;;;;;;;4.15;0.70;;;;;;;27.65;51.24;99491.51;1817374;78;21022;-70
2022/07/13 06:42:52;;;;;;;2.45;0.62;;;;;;;27.55;50.85;99487.77;1822973;78;20986;-69
2022/07/13 06:45:18;;;;;;;1.55;0.60;;;;;;;27.43;50.65;99495.47;1819297;78;21419;-70
2022/07/13 06:47:45;;;;;;;1.92;0.70;;;;;;;27.28;50.29;99499.17;1820884;78;21881;-70
2022/07/13 06:50:12;;;;;;;2.25;0.85;;;;;;;27.17;49.70;99501.83;1820290;77;21488;-70
2022/07/13 06:52:40;;;;;;;3.62;0.78;;;;;;;26.99;49.85;99506.99;1817597;77;21014;-69
2022/07/13 06:55:08;;;;;;;5.28;1.00;;;;;;;26.96;49.86;99502.00;1815292;77;20951;-69
2022/07/13 06:57:35;;;;;;;7.22;1.15;;;;;;;26.68;49.93;99495.60;1817326;78;20900;-69
2022/07/13 07:00:05;;;;;;;6.12;0.90;;;;;;;26.85;49.97;99494.42;1820806;77;21972;-69
2022/07/13 07:02:32;;;;;;;4.67;0.90;;;;;;;26.97;49.52;99491.63;1818686;77;20899;-68
2022/07/13 07:04:59;;;;;;;9.83;1.37;;;;;;;26.97;49.42;99495.66;1758837;78;21585;-68
2022/07/13 07:07:27;;;;;;;7.03;0.93;;;;;;;26.75;49.54;99496.55;1817699;77;20943;-69
2022/07/13 07:09:53;;;;;;;6.22;0.70;;;;;;;26.87;50.27;99497.75;1820195;77;20964;-69
2022/07/13 07:12:20;;;;;;;4.50;0.88;;;;;;;27.01;50.33;99491.58;1818551;77;22299;-70
2022/07/13 07:14:47;;;;;;;5.92;0.80;;;;;;;26.98;49.18;99499.98;1819132;77;20983;-70
2022/07/13 07:17:16;;;;;;;2.33;0.80;;;;;;;26.68;49.94;99500.96;1817378;77;21631;-69
2022/07/13 07:19:44;;;;;;;4.70;1.00;;;;;;;26.82;49.34;99500.14;1788490;78;20946;-69
2022/07/13 07:22:11;;;;;;;2.52;0.42;;;;;;;26.86;49.34;99517.53;1789532;78;20934;-69
2022/07/13 07:24:59;;;;;;;3.00;0.62;;;;;;;26.71;49.52;99511.30;1665759;84;21031;-69
2022/07/13 07:27:26;;;;;;;2.85;0.68;;;;;;;26.61;49.41;99510.72;1670398;84;20927;-69
2022/07/13 07:29:53;;;;;;;2.27;0.75;;;;;;;26.52;49.33;99510.81;1668029;84;21031;-71
2022/07/13 07:32:21;;;;;;;1.35;0.62;;;;;;;26.18;48.89;99513.05;1676655;84;21005;-70
2022/07/13 07:34:47;;;;;;;6.47;0.80;;;;;;;25.89;48.44;99509.23;1664703;84;21023;-69
2022/07/13 07:37:14;;;;;;;4.28;0.70;;;;;;;26.04;50.03;99500.77;1670113;84;21404;-67
2022/07/13 07:39:41;;;;;;;7.90;1.00;;;;;;;26.52;50.19;99499.25;1668444;84;21552;-68
2022/07/13 07:42:07;;;;;;;;;;;;;;;26.53;49.43;99495.07;1672563;84;21004;-66
2022/07/13 07:44:34;;;;;;;4.22;0.98;;;;;;;26.44;49.50;99494.80;1668010;84;20721;-68
2022/07/13 07:47:01;;;;;;;6.35;0.65;;;;;;;26.01;49.24;99495.77;1675204;84;21113;-68
2022/07/13 07:49:27;;;;;;;;;;;;;;;25.74;49.35;99491.75;1670479;84;21039;-67
2022/07/13 07:51:54;;;;;;;3.33;0.72;;;;;;;25.22;48.68;99494.47;1678627;84;20143;-68
2022/07/13 07:54:21;;;;;;;6.00;0.88;;;;;;;24.86;49.54;99494.55;1673897;84;20948;-67
2022/07/13 07:56:48;;;;;;;5.17;0.60;;;;;;;24.64;49.68;99500.91;1676104;84;20980;-68
2022/07/13 07:59:14;;;;;;;;;;;;;;;24.56;50.07;99498.25;1682623;84;20999;-67
2022/07/13 08:01:42;;;;;;;4.70;0.53;;;;;;;24.55;50.01;99493.92;1668096;86;21990;-67
2022/07/13 08:04:10;;;;;;;2.98;0.60;;;;;;;24.45;50.47;99498.59;1663607;84;20968;-67
2022/07/13 08:06:37;;;;;;;0.70;0.50;;;;;;;24.56;50.81;99496.91;1668547;85;21062;-67
2022/07/13 08:09:04;;;;;;;3.00;0.60;;;;;;;24.66;50.80;99497.58;1665822;84;21095;-67
2022/07/13 08:11:31;;;;;;;4.97;0.65;;;;;;;24.71;50.85;99493.91;1674904;84;21169;-69
2022/07/13 08:13:58;;;;;;;3.80;0.98;;;;;;;24.53;50.79;99501.25;1668906;84;21193;-69
2022/07/13 08:16:24;;;;;;;3.75;0.68;;;;;;;24.25;50.87;99506.89;1668340;84;28353;-69
2022/07/13 08:18:51;;;;;;;;;;;;;;;24.02;51.04;99501.88;1669271;84;20992;-69
2022/07/13 08:21:17;;;;;;;1.55;0.62;;;;;;;23.70;51.57;99508.78;1669241;84;20101;-69
2022/07/13 08:23:54;;;;;;;12.18;1.95;;;;;;;23.64;51.86;99510.77;1664935;85;21075;-67
2022/07/13 08:26:25;;;;;;;4.80;0.68;;;;;;;23.81;52.25;99504.50;1715860;82;21657;-69
2022/07/13 08:28:52;;;;;;;1.12;0.60;;;;;;;23.90;52.12;99512.84;1714945;82;21014;-69
2022/07/13 08:31:21;;;;;;;2.98;0.80;;;;;;;23.79;52.04;99516.33;1698634;84;21038;-69
2022/07/13 08:39:18;;;;;;;4.75;0.95;;;;;;;23.12;52.62;99504.20;1701725;82;21547;-70
2022/07/13 08:41:46;;;;;;;2.58;0.85;;;;;;;23.01;52.96;99515.45;1698758;83;21038;-69
2022/07/13 08:44:13;;;;;;;1.65;0.80;;;;;;;22.92;53.16;99509.72;1700145;83;21065;-70
2022/07/13 08:46:40;;;;;;;;;;;;;;;22.94;53.50;99514.89;1701171;82;20912;-70
2022/07/13 08:49:08;;;;;;;8.15;1.72;;;;;;;22.95;53.67;99500.11;1691357;83;20165;-71
2022/07/13 08:51:35;;;;;;;3.72;0.93;;;;;;;22.93;53.58;99503.88;1694631;83;21125;-73
2022/07/13 08:54:04;;;;;;;;;;;;;;;22.82;53.72;99504.98;1689268;83;20947;-72
2022/07/13 08:56:32;;;;;;;6.72;1.50;;;;;;;22.64;53.90;99498.87;1698598;83;20091;-72
2022/07/13 08:59:00;;;;;;;3.87;1.20;;;;;;;22.53;54.19;99500.79;1695235;83;21595;-72
2022/07/13 09:01:27;;;;;;;1.32;0.70;;;;;;;22.67;54.47;99495.91;1699295;84;20896;-72
2022/07/13 09:03:53;;;;;;;2.33;0.90;;;;;;;22.77;54.52;99490.00;1699991;82;21987;-71
2022/07/13 09:06:44;;;;;;;4.95;1.00;;;;;;;22.98;54.83;99473.17;1691984;83;20930;-71
2022/07/13 09:09:31;;;;;;;1.77;0.80;;;;;;;23.05;54.64;99479.19;1698916;84;21516;-73
2022/07/13 09:12:19;;;;;;;7.15;0.90;;;;;;;23.06;54.83;99479.54;1701462;82;21449;-71
2022/07/13 09:15:07;;;;;;;3.50;1.17;;;;;;;23.21;54.98;99477.94;1694562;82;21006;-73
2022/07/13 09:17:42;;;;;;;1.47;0.85;;;;;;;23.23;55.07;99474.13;1694789;83;21049;-71
2022/07/13 09:20:19;;;;;;;6.05;0.88;;;;;;;23.37;55.30;99477.18;1712452;82;21005;-70
2022/07/13 09:22:49;;;;;;;;;;;;;;;23.58;55.39;99476.73;1713507;83;21006;-71
2022/07/13 09:25:37;;;;;;;2.65;1.02;;;;;;;23.68;55.55;99470.78;1693197;84;20143;-70
2022/07/13 09:28:10;;;;;;;12.43;1.50;;;;;;;23.81;55.24;99481.84;1716767;83;21072;-70
2022/07/13 09:30:41;;;;;;;3.95;1.12;;;;;;;23.92;55.42;99485.17;1698769;82;21097;-71
2022/07/13 09:33:08;;;;;;;1.62;0.98;;;;;;;24.14;55.20;99480.53;1716481;82;20974;-71
2022/07/13 09:35:46;;;;;;;3.27;1.22;;;;;;;23.92;54.74;99486.52;1693088;84;21026;-71
2022/07/13 09:38:37;;;;;;;3.65;1.50;;;;;;;23.89;55.14;99477.86;1716918;82;21117;-70
2022/07/13 09:41:26;;;;;;;7.00;1.20;;;;;;;23.87;55.16;99482.52;1709151;82;21540;-68
2022/07/13 09:47:04;;;;;;;28.42;4.12;;;;;;;24.94;56.16;99480.67;1698076;82;21516;-70
2022/07/13 09:49:41;;;;;;;1.80;1.32;;;;;;;25.38;56.07;99475.39;1695243;83;21023;-71
2022/07/13 09:52:18;;;;;;;20.57;2.70;;;;;;;25.70;55.56;99466.86;1697080;83;21025;-70
2022/07/13 09:54:51;;;;;;;7.42;1.90;;;;;;;25.76;55.60;99466.16;1703941;83;21540;-70
2022/07/13 09:57:22;;;;;;;4.80;1.40;;;;;;;25.86;55.44;99474.82;1694596;83;21087;-70
2022/07/13 09:59:49;;;;;;;1.77;1.35;;;;;;;25.68;54.49;99466.55;1706434;82;21038;-71
2022/07/13 10:02:17;;;;;;;2.67;1.32;;;;;;;25.43;55.09;99466.32;1708877;82;20967;-71
2022/07/13 10:04:47;;;;;;;3.95;1.35;;;;;;;25.37;54.85;99464.35;1745769;80;21048;-70
2022/07/13 10:07:14;;;;;;;3.50;1.70;;;;;;;25.20;54.71;99469.77;1753910;80;21079;-70
2022/07/13 10:09:42;;;;;;;2.65;1.72;;;;;;;25.21;54.44;99467.95;1737502;80;21237;-71
2022/07/13 10:12:10;;;;;;;1.90;1.22;;;;;;;24.92;54.55;99468.49;1745400;80;20995;-68
2022/07/13 10:14:38;;;;;;;13.00;2.33;;;;;;;24.76;54.78;99459.53;1755093;80;20977;-69
2022/07/13 10:17:12;;;;;;;3.50;1.60;;;;;;;24.88;55.22;99456.50;1728021;80;22299;-69
2022/07/13 10:19:53;;;;;;;4.42;1.40;;;;;;;25.12;55.32;99457.77;1732811;80;21039;-69
2022/07/13 10:22:26;;;;;;;2.95;1.65;;;;;;;25.57;54.99;99454.91;1739642;81;21063;-69
2022/07/13 10:24:54;;;;;;;3.45;1.70;;;;;;;25.43;54.85;99456.48;1749383;80;21005;-69
2022/07/13 10:27:30;;;;;;;4.67;1.67;;;;;;;25.33;54.92;99455.03;1758077;79;20989;-69
2022/07/13 10:30:05;;;;;;;6.33;1.57;;;;;;;25.25;54.95;99457.73;1764111;80;20933;-69
2022/07/13 10:32:36;;;;;;;3.50;1.60;;;;;;;25.29;55.06;99459.04;1754846;80;21604;-70
2022/07/13 10:35:13;;;;;;;12.58;2.27;;;;;;;25.17;54.66;99462.60;1770910;80;21070;-71
2022/07/13 10:38:09;;;;;;;6.00;1.70;;;;;;;24.98;54.80;99457.12;1739816;80;21047;-68
2022/07/13 10:40:37;;;;;;;;;;;;;;;24.70;54.57;99466.89;1724933;81;20968;-69
2022/07/13 10:43:10;;;;;;;6.50;1.87;;;;;;;24.34;54.60;99467.22;1727525;81;20564;-69
2022/07/13 10:45:48;;;;;;;5.17;1.67;;;;;;;24.14;54.85;99467.20;1719572;82;21563;-68
2022/07/13 10:48:26;;;;;;;16.35;2.72;;;;;;;24.00;54.82;99470.53;1726365;81;21074;-68
2022/07/13 10:50:58;;;;;;;7.20;1.70;;;;;;;23.90;55.04;99450.19;1741339;81;21001;-68
2022/07/13 10:53:50;;;;;;;4.70;1.80;;;;;;;23.89;55.10;99457.87;1750004;80;21025;-69
2022/07/13 10:56:19;;;;;;;5.42;1.95;;;;;;;24.05;55.77;99458.36;1754533;80;21079;-68
2022/07/13 10:58:49;;;;;;;6.42;1.90;;;;;;;24.21;55.69;99461.55;1758163;80;21060;-68
2022/07/13 11:01:43;;;;;;;6.78;1.80;;;;;;;24.49;55.83;99462.58;1752843;81;21200;-68
2022/07/13 11:04:13;;;;;;;18.92;3.42;;;;;;;24.76;55.80;99458.70;1737113;81;21584;-66
2022/07/13 11:06:40;;;;;;;7.03;1.87;;;;;;;24.98;55.94;99449.11;1766768;80;21008;-65
2022/07/13 11:09:09;;;;;;;;;;;;;;;25.17;55.80;99454.08;1761332;80;21007;-64
2022/07/13 11:11:51;;;;;;;4.90;1.82;;;;;;;25.20;55.55;99443.05;1765123;80;20406;-65
2022/07/13 11:14:46;;;;;;;2.75;1.65;;;;;;;25.25;55.19;99443.05;1742415;79;21081;-66
2022/07/13 11:17:23;;;;;;;9.58;1.65;;;;;;;25.20;54.75;99448.38;1757449;80;20910;-64
2022/07/13 11:20:07;;;;;;;5.03;1.50;;;;;;;25.01;54.92;99456.77;1761067;79;20944;-66
2022/07/13 11:25:28;;;;;;;10.63;2.02;;;;;;;25.21;54.80;99444.73;1769579;80;21057;-64
2022/07/13 11:28:06;;;;;;;8.98;2.10;;;;;;;25.11;54.83;99445.91;1709745;83;21498;-65
2022/07/13 11:30:35;;;;;;;13.88;3.25;;;;;;;25.03;54.72;99444.09;1737945;80;20981;-66
2022/07/13 11:33:02;;;;;;;18.05;6.15;;;;;;;24.98;54.50;99437.09;1742549;81;21589;-65
2022/07/13 11:35:29;;;;;;;11.95;3.15;;;;;;;24.79;54.05;99428.48;1729639;81;21056;-65
2022/07/13 11:37:57;;;;;;;16.90;2.33;;;;;;;24.89;54.59;99418.09;1753381;80;25480;-66
2022/07/13 11:40:29;;;;;;;7.25;1.90;;;;;;;25.03;54.26;99426.72;1742278;81;21116;-66
2022/07/13 11:43:01;;;;;;;3.75;1.67;;;;;;;24.94;54.30;99429.10;1728418;82;20956;-66
2022/07/13 11:45:33;;;;;;;11.90;2.37;;;;;;;24.89;54.16;99417.59;1741448;81;21515;-66
2022/07/13 11:48:06;;;;;;;8.25;1.72;;;;;;;24.81;54.31;99426.13;1733443;81;21021;-66
2022/07/13 11:50:53;;;;;;;8.40;3.00;;;;;;;24.78;54.31;99426.80;1751602;80;20973;-65
2022/07/13 11:53:30;;;;;;;4.40;1.40;;;;;;;24.84;54.39;99425.79;1694797;82;21579;-65
2022/07/13 11:56:04;;;;;;;6.05;1.50;;;;;;;24.75;53.87;99417.80;1709083;82;20966;-65